sensor_id;sensor_type;location;lat;lon;timestamp;P1;durP1;ratioP1;P2;durP2;ratioP2
49340;SDS011;35209;51.050;13.678;2023-05-10T00:04:33;2.80;;;1.30;;
49340;SDS011;35209;51.050;13.678;2023-05-10T00:09:35;2.97;;;1.42;;
49340;SDS011;35209;51.050;13.678;2023-05-10T00:14:36;1.80;;;1.30;;
49340;SDS011;35209;51.050;13.678;2023-05-10T00:19:38;1.30;;;1.20;;
49340;SDS011;35209;51.050;13.678;2023-05-10T00:24:40;2.55;;;1.50;;
49340;SDS011;35209;51.050;13.678;2023-05-10T00:29:41;1.70;;;1.33;;
49340;SDS011;35209;51.050;13.678;2023-05-10T00:34:43;1.33;;;1.23;;
49340;SDS011;35209;51.050;13.678;2023-05-10T00:39:45;2.20;;;1.83;;
49340;SDS011;35209;51.050;13.678;2023-05-10T00:44:47;1.50;;;1.40;;
49340;SDS011;35209;51.050;13.678;2023-05-10T00:49:49;2.55;;;1.40;;
49340;SDS011;35209;51.050;13.678;2023-05-10T00:54:51;3.05;;;1.40;;
49340;SDS011;35209;51.050;13.678;2023-05-10T00:59:54;2.92;;;1.33;;
49340;SDS011;35209;51.050;13.678;2023-05-10T01:04:55;1.40;;;1.30;;
49340;SDS011;35209;51.050;13.678;2023-05-10T01:09:57;1.52;;;1.30;;
49340;SDS011;35209;51.050;13.678;2023-05-10T01:15:00;2.13;;;1.33;;
49340;SDS011;35209;51.050;13.678;2023-05-10T01:20:02;1.98;;;1.40;;
49340;SDS011;35209;51.050;13.678;2023-05-10T01:46:24;1.70;;;1.17;;
49340;SDS011;35209;51.050;13.678;2023-05-10T01:51:47;1.50;;;1.20;;
49340;SDS011;35209;51.050;13.678;2023-05-10T01:56:55;1.73;;;1.05;;
49340;SDS011;35209;51.050;13.678;2023-05-10T02:02:01;1.77;;;1.33;;
49340;SDS011;35209;51.050;13.678;2023-05-10T02:07:05;1.17;;;1.02;;
49340;SDS011;35209;51.050;13.678;2023-05-10T02:12:08;1.65;;;1.20;;
49340;SDS011;35209;51.050;13.678;2023-05-10T02:17:10;1.17;;;1.00;;
49340;SDS011;35209;51.050;13.678;2023-05-10T02:22:13;2.50;;;1.20;;
49340;SDS011;35209;51.050;13.678;2023-05-10T02:27:17;2.03;;;1.35;;
49340;SDS011;35209;51.050;13.678;2023-05-10T02:32:21;2.42;;;1.48;;
49340;SDS011;35209;51.050;13.678;2023-05-10T02:37:25;1.42;;;1.27;;
49340;SDS011;35209;51.050;13.678;2023-05-10T02:42:29;1.88;;;1.30;;
49340;SDS011;35209;51.050;13.678;2023-05-10T02:47:33;1.45;;;1.25;;
49340;SDS011;35209;51.050;13.678;2023-05-10T02:52:39;1.65;;;1.30;;
49340;SDS011;35209;51.050;13.678;2023-05-10T02:57:50;1.50;;;1.40;;
49340;SDS011;35209;51.050;13.678;2023-05-10T03:02:55;2.13;;;1.45;;
49340;SDS011;35209;51.050;13.678;2023-05-10T03:07:57;1.20;;;1.10;;
49340;SDS011;35209;51.050;13.678;2023-05-10T03:13:06;1.40;;;1.30;;
49340;SDS011;35209;51.050;13.678;2023-05-10T03:18:21;3.05;;;1.50;;
49340;SDS011;35209;51.050;13.678;2023-05-10T03:23:30;1.33;;;1.23;;
49340;SDS011;35209;51.050;13.678;2023-05-10T03:28:43;6.47;;;1.70;;
49340;SDS011;35209;51.050;13.678;2023-05-10T03:33:48;1.40;;;1.30;;
49340;SDS011;35209;51.050;13.678;2023-05-10T03:38:56;1.30;;;1.20;;
49340;SDS011;35209;51.050;13.678;2023-05-10T03:43:58;1.50;;;1.17;;
49340;SDS011;35209;51.050;13.678;2023-05-10T03:49:00;3.13;;;1.45;;
49340;SDS011;35209;51.050;13.678;2023-05-10T03:54:02;2.03;;;1.40;;
49340;SDS011;35209;51.050;13.678;2023-05-10T03:59:04;2.35;;;1.30;;
49340;SDS011;35209;51.050;13.678;2023-05-10T04:04:09;1.42;;;1.33;;
49340;SDS011;35209;51.050;13.678;2023-05-10T04:09:11;1.67;;;1.40;;
49340;SDS011;35209;51.050;13.678;2023-05-10T04:14:13;1.33;;;1.23;;
49340;SDS011;35209;51.050;13.678;2023-05-10T04:19:14;2.25;;;1.25;;
49340;SDS011;35209;51.050;13.678;2023-05-10T04:24:16;1.73;;;1.40;;
49340;SDS011;35209;51.050;13.678;2023-05-10T04:29:18;1.98;;;1.20;;
49340;SDS011;35209;51.050;13.678;2023-05-10T04:34:20;5.43;;;1.60;;
49340;SDS011;35209;51.050;13.678;2023-05-10T04:39:22;1.55;;;1.38;;
49340;SDS011;35209;51.050;13.678;2023-05-10T04:44:24;3.33;;;1.45;;
49340;SDS011;35209;51.050;13.678;2023-05-10T04:49:25;2.05;;;1.50;;
49340;SDS011;35209;51.050;13.678;2023-05-10T04:54:27;2.13;;;1.10;;
49340;SDS011;35209;51.050;13.678;2023-05-10T04:59:29;4.55;;;1.30;;
49340;SDS011;35209;51.050;13.678;2023-05-10T05:04:32;2.88;;;1.17;;
49340;SDS011;35209;51.050;13.678;2023-05-10T05:09:34;2.53;;;1.17;;
49340;SDS011;35209;51.050;13.678;2023-05-10T05:14:36;1.30;;;1.20;;
49340;SDS011;35209;51.050;13.678;2023-05-10T05:19:37;2.75;;;1.30;;
49340;SDS011;35209;51.050;13.678;2023-05-10T05:24:39;3.65;;;1.17;;
49340;SDS011;35209;51.050;13.678;2023-05-10T05:29:41;1.77;;;1.02;;
49340;SDS011;35209;51.050;13.678;2023-05-10T05:34:44;1.90;;;1.25;;
49340;SDS011;35209;51.050;13.678;2023-05-10T05:39:46;2.88;;;1.50;;
49340;SDS011;35209;51.050;13.678;2023-05-10T05:44:48;1.50;;;1.13;;
49340;SDS011;35209;51.050;13.678;2023-05-10T05:50:10;1.80;;;1.10;;
49340;SDS011;35209;51.050;13.678;2023-05-10T05:55:11;1.63;;;1.25;;
49340;SDS011;35209;51.050;13.678;2023-05-10T06:00:14;2.25;;;1.20;;
49340;SDS011;35209;51.050;13.678;2023-05-10T06:05:15;1.73;;;1.20;;
49340;SDS011;35209;51.050;13.678;2023-05-10T06:10:18;2.35;;;1.33;;
49340;SDS011;35209;51.050;13.678;2023-05-10T06:15:19;2.30;;;1.30;;
49340;SDS011;35209;51.050;13.678;2023-05-10T06:20:21;3.65;;;1.40;;
49340;SDS011;35209;51.050;13.678;2023-05-10T06:25:23;3.15;;;1.10;;
49340;SDS011;35209;51.050;13.678;2023-05-10T06:30:25;2.25;;;1.30;;
49340;SDS011;35209;51.050;13.678;2023-05-10T06:35:30;5.37;;;1.50;;
49340;SDS011;35209;51.050;13.678;2023-05-10T06:40:34;1.85;;;1.10;;
49340;SDS011;35209;51.050;13.678;2023-05-10T06:45:37;4.30;;;1.75;;
49340;SDS011;35209;51.050;13.678;2023-05-10T06:50:38;2.95;;;1.17;;
49340;SDS011;35209;51.050;13.678;2023-05-10T06:55:40;4.13;;;1.30;;
49340;SDS011;35209;51.050;13.678;2023-05-10T07:00:42;3.03;;;1.10;;
49340;SDS011;35209;51.050;13.678;2023-05-10T07:05:45;1.50;;;1.30;;
49340;SDS011;35209;51.050;13.678;2023-05-10T07:10:47;1.60;;;1.20;;
49340;SDS011;35209;51.050;13.678;2023-05-10T07:15:49;1.20;;;1.10;;
49340;SDS011;35209;51.050;13.678;2023-05-10T07:20:51;2.75;;;1.50;;
49340;SDS011;35209;51.050;13.678;2023-05-10T07:25:53;2.55;;;1.20;;
49340;SDS011;35209;51.050;13.678;2023-05-10T07:30:54;2.85;;;1.40;;
49340;SDS011;35209;51.050;13.678;2023-05-10T07:35:56;2.55;;;1.35;;
49340;SDS011;35209;51.050;13.678;2023-05-10T07:40:58;3.08;;;1.30;;
49340;SDS011;35209;51.050;13.678;2023-05-10T07:46:00;2.17;;;1.30;;
49340;SDS011;35209;51.050;13.678;2023-05-10T07:51:02;2.10;;;1.08;;
49340;SDS011;35209;51.050;13.678;2023-05-10T08:01:46;1.85;;;1.30;;
49340;SDS011;35209;51.050;13.678;2023-05-10T08:06:47;4.82;;;1.25;;
49340;SDS011;35209;51.050;13.678;2023-05-10T08:11:49;1.20;;;1.10;;
49340;SDS011;35209;51.050;13.678;2023-05-10T08:16:51;1.77;;;1.35;;
49340;SDS011;35209;51.050;13.678;2023-05-10T08:21:53;2.15;;;1.20;;
49340;SDS011;35209;51.050;13.678;2023-05-10T08:26:56;2.10;;;1.30;;
49340;SDS011;35209;51.050;13.678;2023-05-10T08:31:58;1.65;;;1.50;;
49340;SDS011;35209;51.050;13.678;2023-05-10T08:37:00;2.20;;;1.40;;
49340;SDS011;35209;51.050;13.678;2023-05-10T08:42:02;2.45;;;1.42;;
49340;SDS011;35209;51.050;13.678;2023-05-10T08:47:05;3.13;;;1.42;;
49340;SDS011;35209;51.050;13.678;2023-05-10T08:52:11;1.67;;;1.58;;
49340;SDS011;35209;51.050;13.678;2023-05-10T08:57:15;2.03;;;1.23;;
49340;SDS011;35209;51.050;13.678;2023-05-10T09:02:18;1.42;;;1.33;;
49340;SDS011;35209;51.050;13.678;2023-05-10T09:07:20;3.80;;;1.35;;
49340;SDS011;35209;51.050;13.678;2023-05-10T09:12:22;3.05;;;1.40;;
49340;SDS011;35209;51.050;13.678;2023-05-10T09:17:24;1.60;;;1.50;;
49340;SDS011;35209;51.050;13.678;2023-05-10T09:22:27;3.30;;;1.70;;
49340;SDS011;35209;51.050;13.678;2023-05-10T09:27:28;3.25;;;1.80;;
49340;SDS011;35209;51.050;13.678;2023-05-10T09:32:40;2.00;;;1.30;;
49340;SDS011;35209;51.050;13.678;2023-05-10T09:37:43;2.17;;;1.42;;
49340;SDS011;35209;51.050;13.678;2023-05-10T09:42:54;4.63;;;1.30;;
49340;SDS011;35209;51.050;13.678;2023-05-10T09:47:58;2.42;;;1.42;;
49340;SDS011;35209;51.050;13.678;2023-05-10T09:53:01;2.15;;;1.67;;
49340;SDS011;35209;51.050;13.678;2023-05-10T09:58:04;2.35;;;1.67;;
49340;SDS011;35209;51.050;13.678;2023-05-10T10:03:12;1.55;;;1.45;;
49340;SDS011;35209;51.050;13.678;2023-05-10T10:08:18;3.50;;;1.85;;
49340;SDS011;35209;51.050;13.678;2023-05-10T10:13:20;1.55;;;1.33;;
49340;SDS011;35209;51.050;13.678;2023-05-10T10:18:22;3.65;;;1.65;;
49340;SDS011;35209;51.050;13.678;2023-05-10T10:23:28;2.72;;;1.67;;
49340;SDS011;35209;51.050;13.678;2023-05-10T10:39:01;3.47;;;1.73;;
49340;SDS011;35209;51.050;13.678;2023-05-10T10:50:27;2.10;;;1.25;;
49340;SDS011;35209;51.050;13.678;2023-05-10T10:55:28;2.15;;;1.67;;
49340;SDS011;35209;51.050;13.678;2023-05-10T11:00:32;1.45;;;1.35;;
49340;SDS011;35209;51.050;13.678;2023-05-10T11:15:53;3.03;;;1.55;;
49340;SDS011;35209;51.050;13.678;2023-05-10T11:20:56;1.95;;;1.70;;
49340;SDS011;35209;51.050;13.678;2023-05-10T11:31:03;2.50;;;1.98;;
49340;SDS011;35209;51.050;13.678;2023-05-10T11:36:05;1.67;;;1.58;;
49340;SDS011;35209;51.050;13.678;2023-05-10T11:41:12;3.65;;;1.67;;
49340;SDS011;35209;51.050;13.678;2023-05-10T11:46:15;2.40;;;1.60;;
49340;SDS011;35209;51.050;13.678;2023-05-10T11:51:20;2.53;;;1.88;;
49340;SDS011;35209;51.050;13.678;2023-05-10T11:56:22;2.13;;;1.52;;
49340;SDS011;35209;51.050;13.678;2023-05-10T12:01:26;2.60;;;1.50;;
49340;SDS011;35209;51.050;13.678;2023-05-10T12:06:29;3.92;;;1.50;;
49340;SDS011;35209;51.050;13.678;2023-05-10T12:11:38;2.13;;;1.80;;
49340;SDS011;35209;51.050;13.678;2023-05-10T12:16:44;2.20;;;1.75;;
49340;SDS011;35209;51.050;13.678;2023-05-10T12:26:53;3.25;;;1.80;;
49340;SDS011;35209;51.050;13.678;2023-05-10T12:31:59;3.57;;;1.97;;
49340;SDS011;35209;51.050;13.678;2023-05-10T12:37:03;3.28;;;1.50;;
49340;SDS011;35209;51.050;13.678;2023-05-10T12:42:09;1.60;;;1.43;;
49340;SDS011;35209;51.050;13.678;2023-05-10T12:47:11;2.88;;;1.50;;
49340;SDS011;35209;51.050;13.678;2023-05-10T12:52:13;1.77;;;1.30;;
49340;SDS011;35209;51.050;13.678;2023-05-10T12:57:17;2.60;;;1.75;;
49340;SDS011;35209;51.050;13.678;2023-05-10T13:02:18;2.53;;;1.40;;
49340;SDS011;35209;51.050;13.678;2023-05-10T13:07:21;1.92;;;1.30;;
49340;SDS011;35209;51.050;13.678;2023-05-10T13:12:23;5.45;;;1.50;;
49340;SDS011;35209;51.050;13.678;2023-05-10T13:17:25;2.90;;;1.65;;
49340;SDS011;35209;51.050;13.678;2023-05-10T13:22:27;4.43;;;1.83;;
49340;SDS011;35209;51.050;13.678;2023-05-10T13:27:40;1.55;;;1.45;;
49340;SDS011;35209;51.050;13.678;2023-05-10T13:32:42;2.67;;;1.30;;
49340;SDS011;35209;51.050;13.678;2023-05-10T13:37:43;2.08;;;1.35;;
49340;SDS011;35209;51.050;13.678;2023-05-10T13:42:45;2.28;;;2.08;;
49340;SDS011;35209;51.050;13.678;2023-05-10T13:47:47;1.92;;;1.80;;
49340;SDS011;35209;51.050;13.678;2023-05-10T13:52:48;2.45;;;1.30;;
49340;SDS011;35209;51.050;13.678;2023-05-10T13:57:50;3.33;;;1.95;;
49340;SDS011;35209;51.050;13.678;2023-05-10T14:02:54;2.22;;;1.88;;
49340;SDS011;35209;51.050;13.678;2023-05-10T14:07:56;3.05;;;2.30;;
49340;SDS011;35209;51.050;13.678;2023-05-10T14:12:58;2.30;;;1.70;;
49340;SDS011;35209;51.050;13.678;2023-05-10T14:18:00;2.97;;;1.70;;
49340;SDS011;35209;51.050;13.678;2023-05-10T14:23:02;4.13;;;2.33;;
49340;SDS011;35209;51.050;13.678;2023-05-10T14:28:04;4.18;;;2.20;;
49340;SDS011;35209;51.050;13.678;2023-05-10T14:33:06;7.38;;;2.88;;
49340;SDS011;35209;51.050;13.678;2023-05-10T14:38:09;2.80;;;2.60;;
49340;SDS011;35209;51.050;13.678;2023-05-10T14:43:11;2.53;;;2.10;;
49340;SDS011;35209;51.050;13.678;2023-05-10T14:48:13;3.38;;;2.55;;
49340;SDS011;35209;51.050;13.678;2023-05-10T14:53:18;2.15;;;1.70;;
49340;SDS011;35209;51.050;13.678;2023-05-10T14:58:20;6.47;;;2.20;;
49340;SDS011;35209;51.050;13.678;2023-05-10T15:03:21;4.05;;;2.47;;
49340;SDS011;35209;51.050;13.678;2023-05-10T15:08:24;2.55;;;1.80;;
49340;SDS011;35209;51.050;13.678;2023-05-10T15:13:26;3.13;;;1.88;;
49340;SDS011;35209;51.050;13.678;2023-05-10T15:18:27;3.42;;;2.05;;
49340;SDS011;35209;51.050;13.678;2023-05-10T15:23:29;2.35;;;1.77;;
49340;SDS011;35209;51.050;13.678;2023-05-10T15:28:31;2.72;;;1.92;;
49340;SDS011;35209;51.050;13.678;2023-05-10T15:33:36;2.00;;;1.75;;
49340;SDS011;35209;51.050;13.678;2023-05-10T15:38:39;2.08;;;1.50;;
49340;SDS011;35209;51.050;13.678;2023-05-10T15:43:41;3.10;;;2.00;;
49340;SDS011;35209;51.050;13.678;2023-05-10T15:48:43;2.65;;;1.75;;
49340;SDS011;35209;51.050;13.678;2023-05-10T15:53:45;2.85;;;1.80;;
49340;SDS011;35209;51.050;13.678;2023-05-10T15:59:06;4.13;;;2.20;;
49340;SDS011;35209;51.050;13.678;2023-05-10T16:04:08;2.63;;;2.08;;
49340;SDS011;35209;51.050;13.678;2023-05-10T16:09:10;4.47;;;2.33;;
49340;SDS011;35209;51.050;13.678;2023-05-10T16:14:12;2.10;;;1.90;;
49340;SDS011;35209;51.050;13.678;2023-05-10T16:19:13;3.35;;;2.63;;
49340;SDS011;35209;51.050;13.678;2023-05-10T16:24:16;4.20;;;3.80;;
49340;SDS011;35209;51.050;13.678;2023-05-10T16:29:18;3.97;;;3.63;;
49340;SDS011;35209;51.050;13.678;2023-05-10T16:34:19;3.95;;;2.53;;
49340;SDS011;35209;51.050;13.678;2023-05-10T16:39:24;3.25;;;2.45;;
49340;SDS011;35209;51.050;13.678;2023-05-10T16:44:26;4.00;;;3.10;;
49340;SDS011;35209;51.050;13.678;2023-05-10T16:49:28;3.20;;;2.90;;
49340;SDS011;35209;51.050;13.678;2023-05-10T16:54:30;6.30;;;2.20;;
49340;SDS011;35209;51.050;13.678;2023-05-10T16:59:31;4.53;;;2.50;;
49340;SDS011;35209;51.050;13.678;2023-05-10T17:04:33;2.70;;;2.30;;
49340;SDS011;35209;51.050;13.678;2023-05-10T17:09:35;2.10;;;2.00;;
49340;SDS011;35209;51.050;13.678;2023-05-10T17:14:37;2.63;;;1.95;;
49340;SDS011;35209;51.050;13.678;2023-05-10T17:19:39;3.25;;;1.95;;
49340;SDS011;35209;51.050;13.678;2023-05-10T17:24:40;4.07;;;2.10;;
49340;SDS011;35209;51.050;13.678;2023-05-10T17:29:42;2.67;;;2.00;;
49340;SDS011;35209;51.050;13.678;2023-05-10T17:34:44;3.45;;;1.92;;
49340;SDS011;35209;51.050;13.678;2023-05-10T17:39:45;2.15;;;1.83;;
49340;SDS011;35209;51.050;13.678;2023-05-10T17:44:47;4.78;;;1.75;;
49340;SDS011;35209;51.050;13.678;2023-05-10T17:49:48;2.35;;;1.30;;
49340;SDS011;35209;51.050;13.678;2023-05-10T17:54:50;1.83;;;1.20;;
49340;SDS011;35209;51.050;13.678;2023-05-10T17:59:52;1.13;;;1.02;;
49340;SDS011;35209;51.050;13.678;2023-05-10T18:04:54;3.67;;;3.38;;
49340;SDS011;35209;51.050;13.678;2023-05-10T18:10:00;3.07;;;2.77;;
49340;SDS011;35209;51.050;13.678;2023-05-10T18:15:01;1.63;;;1.45;;
49340;SDS011;35209;51.050;13.678;2023-05-10T18:20:03;1.08;;;0.98;;
49340;SDS011;35209;51.050;13.678;2023-05-10T18:25:06;1.42;;;1.10;;
49340;SDS011;35209;51.050;13.678;2023-05-10T18:30:08;1.20;;;1.00;;
49340;SDS011;35209;51.050;13.678;2023-05-10T18:35:12;1.73;;;1.00;;
49340;SDS011;35209;51.050;13.678;2023-05-10T18:40:15;2.08;;;1.58;;
49340;SDS011;35209;51.050;13.678;2023-05-10T18:45:17;2.35;;;1.50;;
49340;SDS011;35209;51.050;13.678;2023-05-10T18:50:23;2.70;;;1.60;;
49340;SDS011;35209;51.050;13.678;2023-05-10T18:55:57;1.30;;;1.20;;
49340;SDS011;35209;51.050;13.678;2023-05-10T19:00:59;2.17;;;1.60;;
49340;SDS011;35209;51.050;13.678;2023-05-10T19:06:03;2.17;;;1.90;;
49340;SDS011;35209;51.050;13.678;2023-05-10T19:11:05;1.35;;;1.25;;
49340;SDS011;35209;51.050;13.678;2023-05-10T19:16:11;1.40;;;1.30;;
49340;SDS011;35209;51.050;13.678;2023-05-10T19:21:15;1.50;;;1.40;;
49340;SDS011;35209;51.050;13.678;2023-05-10T19:26:17;2.83;;;1.55;;
49340;SDS011;35209;51.050;13.678;2023-05-10T19:31:19;2.42;;;1.60;;
49340;SDS011;35209;51.050;13.678;2023-05-10T19:36:22;8.82;;;2.50;;
49340;SDS011;35209;51.050;13.678;2023-05-10T19:41:23;5.70;;;2.30;;
49340;SDS011;35209;51.050;13.678;2023-05-10T19:46:25;3.42;;;2.15;;
49340;SDS011;35209;51.050;13.678;2023-05-10T19:51:27;6.78;;;2.28;;
49340;SDS011;35209;51.050;13.678;2023-05-10T19:56:29;3.50;;;2.35;;
49340;SDS011;35209;51.050;13.678;2023-05-10T20:01:31;6.03;;;2.47;;
49340;SDS011;35209;51.050;13.678;2023-05-10T20:06:34;3.70;;;2.42;;
49340;SDS011;35209;51.050;13.678;2023-05-10T20:11:36;2.20;;;2.00;;
49340;SDS011;35209;51.050;13.678;2023-05-10T20:16:37;4.60;;;1.98;;
49340;SDS011;35209;51.050;13.678;2023-05-10T20:21:39;2.85;;;2.13;;
49340;SDS011;35209;51.050;13.678;2023-05-10T20:26:41;4.35;;;2.80;;
49340;SDS011;35209;51.050;13.678;2023-05-10T20:31:43;2.95;;;2.75;;
49340;SDS011;35209;51.050;13.678;2023-05-10T20:36:44;2.50;;;2.30;;
49340;SDS011;35209;51.050;13.678;2023-05-10T20:41:46;3.47;;;3.17;;
49340;SDS011;35209;51.050;13.678;2023-05-10T20:46:48;3.75;;;2.83;;
49340;SDS011;35209;51.050;13.678;2023-05-10T20:51:50;3.70;;;3.25;;
49340;SDS011;35209;51.050;13.678;2023-05-10T20:56:51;4.35;;;3.55;;
49340;SDS011;35209;51.050;13.678;2023-05-10T21:01:53;2.92;;;2.70;;
49340;SDS011;35209;51.050;13.678;2023-05-10T21:06:56;2.70;;;2.50;;
49340;SDS011;35209;51.050;13.678;2023-05-10T21:11:57;6.85;;;2.55;;
49340;SDS011;35209;51.050;13.678;2023-05-10T21:16:59;5.22;;;2.95;;
49340;SDS011;35209;51.050;13.678;2023-05-10T21:22:01;4.63;;;2.63;;
49340;SDS011;35209;51.050;13.678;2023-05-10T21:27:03;3.65;;;3.35;;
49340;SDS011;35209;51.050;13.678;2023-05-10T21:32:05;6.18;;;3.30;;
49340;SDS011;35209;51.050;13.678;2023-05-10T21:37:07;3.10;;;2.70;;
49340;SDS011;35209;51.050;13.678;2023-05-10T21:42:08;3.33;;;3.05;;
49340;SDS011;35209;51.050;13.678;2023-05-10T21:47:10;3.60;;;3.30;;
49340;SDS011;35209;51.050;13.678;2023-05-10T21:52:11;3.88;;;3.58;;
49340;SDS011;35209;51.050;13.678;2023-05-10T21:57:13;6.90;;;2.97;;
49340;SDS011;35209;51.050;13.678;2023-05-10T22:02:15;3.15;;;2.85;;
49340;SDS011;35209;51.050;13.678;2023-05-10T22:07:17;3.40;;;3.20;;
49340;SDS011;35209;51.050;13.678;2023-05-10T22:12:18;3.20;;;3.00;;
49340;SDS011;35209;51.050;13.678;2023-05-10T22:17:20;3.20;;;3.00;;
49340;SDS011;35209;51.050;13.678;2023-05-10T22:22:22;3.35;;;3.15;;
49340;SDS011;35209;51.050;13.678;2023-05-10T22:27:23;3.80;;;3.60;;
49340;SDS011;35209;51.050;13.678;2023-05-10T22:32:29;3.70;;;3.40;;
49340;SDS011;35209;51.050;13.678;2023-05-10T22:37:31;3.60;;;3.28;;
49340;SDS011;35209;51.050;13.678;2023-05-10T22:42:33;3.85;;;3.58;;
49340;SDS011;35209;51.050;13.678;2023-05-10T22:47:35;3.67;;;3.38;;
49340;SDS011;35209;51.050;13.678;2023-05-10T22:52:36;4.10;;;3.70;;
49340;SDS011;35209;51.050;13.678;2023-05-10T22:57:39;4.90;;;4.43;;
49340;SDS011;35209;51.050;13.678;2023-05-10T23:02:41;3.92;;;3.55;;
49340;SDS011;35209;51.050;13.678;2023-05-10T23:07:43;4.43;;;4.13;;
49340;SDS011;35209;51.050;13.678;2023-05-10T23:12:45;4.38;;;3.97;;
49340;SDS011;35209;51.050;13.678;2023-05-10T23:17:46;4.28;;;3.90;;
49340;SDS011;35209;51.050;13.678;2023-05-10T23:22:48;4.55;;;4.15;;
49340;SDS011;35209;51.050;13.678;2023-05-10T23:27:49;4.90;;;4.50;;
49340;SDS011;35209;51.050;13.678;2023-05-10T23:32:51;4.40;;;3.90;;
49340;SDS011;35209;51.050;13.678;2023-05-10T23:37:53;5.10;;;4.70;;
49340;SDS011;35209;51.050;13.678;2023-05-10T23:42:55;5.18;;;4.68;;
49340;SDS011;35209;51.050;13.678;2023-05-10T23:47:57;4.28;;;3.97;;
49340;SDS011;35209;51.050;13.678;2023-05-10T23:52:58;4.22;;;3.92;;
49340;SDS011;35209;51.050;13.678;2023-05-10T23:58:00;3.97;;;3.67;;
